createdAt,value
2023-03-11T00:00:57.935Z,100.00
2023-03-11T00:03:29.000Z,100.00
2023-03-11T00:06:02.626Z,100.00
2023-03-11T00:08:31.360Z,100.00
2023-03-11T00:11:01.477Z,100.00
2023-03-11T00:13:31.285Z,100.00
2023-03-11T00:16:01.394Z,100.00
2023-03-11T00:18:31.729Z,100.00
2023-03-11T00:21:02.514Z,100.00
2023-03-11T00:23:32.661Z,100.00
2023-03-11T00:26:03.298Z,100.00
2023-03-11T00:28:34.395Z,100.00
2023-03-11T00:31:04.354Z,100.00
2023-03-11T00:33:33.144Z,100.00
2023-03-11T00:36:03.814Z,100.00
2023-03-11T00:38:33.181Z,100.00
2023-03-11T00:41:02.971Z,100.00
2023-03-11T00:43:32.776Z,100.00
2023-03-11T00:46:01.248Z,100.00
2023-03-11T00:48:29.485Z,100.00
2023-03-11T00:50:58.640Z,100.00
2023-03-11T00:53:26.546Z,100.00
2023-03-11T00:55:54.836Z,100.00
2023-03-11T00:58:27.212Z,100.00
2023-03-11T01:00:55.044Z,100.00
2023-03-11T01:03:23.068Z,100.00
2023-03-11T01:05:52.222Z,100.00
2023-03-11T01:08:19.956Z,100.00
2023-03-11T01:10:48.205Z,100.00
2023-03-11T01:13:16.667Z,100.00
2023-03-11T01:15:45.285Z,100.00
2023-03-11T01:18:14.209Z,100.00
2023-03-11T01:20:42.695Z,100.00
2023-03-11T01:23:12.304Z,100.00
2023-03-11T01:25:42.211Z,100.00
2023-03-11T01:28:11.371Z,100.00
2023-03-11T01:30:42.214Z,100.00
2023-03-11T01:33:17.367Z,100.00
2023-03-11T01:35:47.259Z,100.00
2023-03-11T01:38:17.312Z,100.00
2023-03-11T01:40:51.124Z,100.00
2023-03-11T01:43:41.431Z,100.00
2023-03-11T01:46:20.387Z,100.00
2023-03-11T01:48:58.230Z,100.00
2023-03-11T01:51:35.741Z,100.00
2023-03-11T01:54:15.079Z,100.00
2023-03-11T01:56:46.557Z,100.00
2023-03-11T01:59:24.432Z,100.00
2023-03-11T02:02:15.348Z,100.00
2023-03-11T02:04:46.575Z,100.00
2023-03-11T02:07:17.449Z,100.00
2023-03-11T02:09:47.134Z,100.00
2023-03-11T02:12:16.937Z,100.00
2023-03-11T02:14:54.501Z,100.00
2023-03-11T02:17:24.826Z,100.00
2023-03-11T02:20:16.600Z,100.00
2023-03-11T02:22:48.464Z,100.00
2023-03-11T02:25:39.599Z,100.00
2023-03-11T02:28:14.825Z,100.00
2023-03-11T02:30:46.986Z,100.00
2023-03-11T02:33:19.271Z,100.00
2023-03-11T02:35:49.184Z,100.00
2023-03-11T02:38:18.961Z,100.00
2023-03-11T02:41:02.788Z,100.00
2023-03-11T02:43:40.678Z,100.00
2023-03-11T02:46:14.023Z,100.00
2023-03-11T02:48:44.808Z,100.00
2023-03-11T02:51:14.719Z,100.00
2023-03-11T02:53:58.015Z,100.00
2023-03-11T02:56:28.664Z,100.00
2023-03-11T02:58:58.673Z,100.00
2023-03-11T03:01:28.462Z,100.00
2023-03-11T03:03:58.244Z,100.00
2023-03-11T03:06:28.701Z,100.00
2023-03-11T03:08:58.654Z,100.00
2023-03-11T03:11:28.580Z,100.00
2023-03-11T03:13:58.301Z,100.00
2023-03-11T03:16:28.063Z,100.00
2023-03-11T03:18:57.849Z,100.00
2023-03-11T03:21:27.776Z,100.00
2023-03-11T03:23:57.672Z,100.00
2023-03-11T03:26:27.555Z,100.00
2023-03-11T03:28:57.296Z,100.00
2023-03-11T03:31:27.174Z,100.00
2023-03-11T03:33:57.306Z,100.00
2023-03-11T03:36:27.083Z,100.00
2023-03-11T03:38:58.970Z,100.00
2023-03-11T03:41:28.742Z,100.00
2023-03-11T03:43:59.034Z,100.00
2023-03-11T03:46:28.796Z,100.00
2023-03-11T03:48:57.223Z,100.00
2023-03-11T03:51:25.678Z,100.00
2023-03-11T03:53:54.118Z,100.00
2023-03-11T03:56:22.601Z,100.00
2023-03-11T03:58:50.851Z,100.00
2023-03-11T04:01:20.233Z,100.00
2023-03-11T04:03:47.787Z,100.00
2023-03-11T04:06:21.956Z,100.00
2023-03-11T04:08:53.882Z,100.00
2023-03-11T04:11:23.711Z,100.00
2023-03-11T04:13:53.448Z,100.00
2023-03-11T04:16:24.998Z,100.00
2023-03-11T04:18:54.814Z,100.00
2023-03-11T04:21:24.660Z,100.00
2023-03-11T04:23:54.457Z,100.00
2023-03-11T04:26:24.303Z,100.00
2023-03-11T04:28:54.636Z,100.00
2023-03-11T04:31:24.466Z,100.00
2023-03-11T04:33:54.715Z,100.00
2023-03-11T04:36:24.448Z,100.00
2023-03-11T04:38:57.265Z,100.00
2023-03-11T04:41:27.329Z,100.00
2023-03-11T04:43:59.598Z,100.00
2023-03-11T04:46:29.548Z,100.00
2023-03-11T04:48:59.434Z,100.00
2023-03-11T04:51:27.952Z,100.00
2023-03-11T04:53:56.342Z,100.00
2023-03-11T04:56:24.774Z,100.00
2023-03-11T04:58:53.129Z,100.00
2023-03-11T05:01:21.580Z,100.00
2023-03-11T05:03:49.996Z,100.00
2023-03-11T05:06:18.506Z,100.00
2023-03-11T05:08:46.861Z,100.00
2023-03-11T05:11:15.273Z,100.00
2023-03-11T05:13:43.627Z,100.00
2023-03-11T05:16:12.096Z,100.00
2023-03-11T05:18:40.738Z,100.00
2023-03-11T05:21:08.885Z,100.00
2023-03-11T05:23:37.303Z,100.00
2023-03-11T05:26:06.532Z,100.00
2023-03-11T05:28:34.202Z,100.00
2023-03-11T05:31:02.650Z,100.00
2023-03-11T05:33:35.274Z,100.00
2023-03-11T05:36:10.432Z,100.00
2023-03-11T05:38:40.192Z,100.00
2023-03-11T05:41:10.113Z,100.00
2023-03-11T05:43:39.881Z,100.00
2023-03-11T05:46:11.236Z,100.00
2023-03-11T05:48:41.083Z,100.00
2023-03-11T05:51:12.468Z,100.00
2023-03-11T05:53:48.732Z,100.00
2023-03-11T05:56:22.634Z,100.00
2023-03-11T05:58:52.354Z,100.00
2023-03-11T06:01:22.297Z,100.00
2023-03-11T06:03:52.204Z,100.00
2023-03-11T06:06:22.032Z,100.00
2023-03-11T06:08:51.902Z,100.00
2023-03-11T06:11:25.517Z,100.00
2023-03-11T06:13:57.829Z,100.00
2023-03-11T06:16:27.584Z,100.00
2023-03-11T06:18:58.000Z,100.00
2023-03-11T06:21:28.145Z,100.00
2023-03-11T06:23:58.046Z,100.00
2023-03-11T06:26:28.076Z,100.00
2023-03-11T06:28:57.904Z,100.00
2023-03-11T06:31:29.895Z,100.00
2023-03-11T06:33:59.422Z,100.00
2023-03-11T06:36:27.942Z,100.00
2023-03-11T06:38:56.305Z,100.00
2023-03-11T06:41:25.342Z,100.00
2023-03-11T06:43:53.133Z,100.00
2023-03-11T06:46:23.720Z,100.00
2023-03-11T06:48:53.355Z,100.00
2023-03-11T06:51:22.196Z,100.00
2023-03-11T06:53:53.386Z,100.00
2023-03-11T06:56:23.866Z,100.00
2023-03-11T06:58:54.759Z,100.00
2023-03-11T07:01:27.214Z,100.00
2023-03-11T07:03:57.018Z,100.00
2023-03-11T07:06:28.681Z,100.00
2023-03-11T07:08:58.585Z,100.00
2023-03-11T07:11:28.819Z,100.00
2023-03-11T07:13:58.950Z,100.00
2023-03-11T07:16:30.740Z,100.00
2023-03-11T07:19:03.215Z,100.00
2023-03-11T07:21:33.352Z,100.00
2023-03-11T07:24:04.128Z,100.00
2023-03-11T07:26:33.831Z,100.00
2023-03-11T07:29:03.641Z,100.00
2023-03-11T07:31:34.953Z,100.00
2023-03-11T07:34:11.342Z,100.00
2023-03-11T07:36:42.831Z,100.00
2023-03-11T07:39:18.890Z,100.00
2023-03-11T07:41:47.741Z,100.00
2023-03-11T07:44:18.201Z,100.00
2023-03-11T07:46:46.279Z,100.00
2023-03-11T07:49:15.642Z,100.00
2023-03-11T07:51:46.036Z,100.00
2023-03-11T07:54:15.101Z,100.00
2023-03-11T07:56:44.947Z,100.00
2023-03-11T07:59:15.170Z,100.00
2023-03-11T08:01:47.388Z,100.00
2023-03-11T08:04:17.238Z,100.00
2023-03-11T08:06:48.380Z,100.00
2023-03-11T08:09:17.937Z,100.00
2023-03-11T08:11:49.684Z,100.00
2023-03-11T08:14:19.111Z,100.00
2023-03-11T08:16:47.463Z,100.00
2023-03-11T08:19:15.841Z,100.00
2023-03-11T08:21:44.385Z,100.00
2023-03-11T08:24:14.528Z,100.00
2023-03-11T08:26:44.382Z,100.00
2023-03-11T08:29:12.717Z,100.00
2023-03-11T08:31:41.028Z,100.00
2023-03-11T08:34:11.772Z,100.00
2023-03-11T08:36:42.021Z,100.00
2023-03-11T08:39:11.884Z,100.00
2023-03-11T08:41:41.771Z,100.00
2023-03-11T08:44:11.937Z,100.00
2023-03-11T08:46:41.743Z,100.00
2023-03-11T08:49:11.602Z,100.00
2023-03-11T08:51:42.586Z,100.00
2023-03-11T08:54:12.468Z,100.00
2023-03-11T08:56:42.303Z,100.00
2023-03-11T08:59:12.030Z,100.00
2023-03-11T09:01:42.678Z,100.00
2023-03-11T09:04:13.675Z,100.00
2023-03-11T09:06:44.561Z,100.00
2023-03-11T09:09:20.390Z,100.00
2023-03-11T09:11:50.201Z,100.00
2023-03-11T09:14:20.014Z,100.00
2023-03-11T09:16:49.754Z,100.00
2023-03-11T09:19:19.579Z,100.00
2023-03-11T09:21:49.813Z,100.00
2023-03-11T09:24:19.728Z,100.00
2023-03-11T09:26:49.449Z,100.00
2023-03-11T09:29:19.625Z,100.00
2023-03-11T09:31:49.435Z,100.00
2023-03-11T09:34:19.659Z,100.00
2023-03-11T09:36:49.455Z,100.00
2023-03-11T09:39:19.303Z,100.00
2023-03-11T09:42:01.055Z,100.00
2023-03-11T09:44:50.054Z,100.00
2023-03-11T09:47:32.513Z,100.00
2023-03-11T09:50:18.213Z,100.00
2023-03-11T09:53:19.628Z,100.00
2023-03-11T09:55:58.189Z,100.00
2023-03-11T09:58:56.201Z,100.00
2023-03-11T10:01:35.006Z,100.00
2023-03-11T10:04:28.704Z,100.00
2023-03-11T10:07:06.297Z,100.00
2023-03-11T10:09:48.277Z,100.00
2023-03-11T10:12:45.752Z,100.00
2023-03-11T10:16:06.906Z,100.00
2023-03-11T10:19:11.853Z,100.00
2023-03-11T10:22:26.606Z,100.00
2023-03-11T10:25:15.766Z,100.00
2023-03-11T10:27:55.479Z,100.00
2023-03-11T10:30:41.021Z,100.00
2023-03-11T10:33:32.810Z,100.00
2023-03-11T10:36:27.344Z,100.00
2023-03-11T10:38:56.249Z,100.00
2023-03-11T10:41:39.935Z,100.00
2023-03-11T10:44:17.627Z,100.00
2023-03-11T10:46:47.528Z,100.00
2023-03-11T10:49:18.825Z,100.00
2023-03-11T10:51:52.674Z,100.00
2023-03-11T10:54:34.095Z,100.00
2023-03-11T10:57:24.322Z,100.00
2023-03-11T10:59:59.183Z,100.00
2023-03-11T11:02:32.838Z,100.00
2023-03-11T11:05:20.207Z,100.00
2023-03-11T11:08:03.605Z,100.00
2023-03-11T11:10:35.963Z,100.00
2023-03-11T11:13:08.590Z,100.00
2023-03-11T11:16:02.466Z,100.00
2023-03-11T11:18:42.460Z,100.00
2023-03-11T11:21:26.905Z,100.00
2023-03-11T11:24:09.799Z,100.00
2023-03-11T11:26:39.512Z,100.00
2023-03-11T11:29:12.486Z,100.00
2023-03-11T11:31:46.025Z,100.00
2023-03-11T11:34:35.108Z,100.00
2023-03-11T11:37:10.648Z,100.00
2023-03-11T11:39:52.049Z,100.00
2023-03-11T11:42:26.060Z,100.00
2023-03-11T11:45:27.207Z,100.00
2023-03-11T11:48:04.522Z,100.00
2023-03-11T11:50:59.387Z,100.00
2023-03-11T11:53:46.605Z,100.00
2023-03-11T11:56:16.383Z,100.00
2023-03-11T11:58:46.186Z,100.00
2023-03-11T12:01:34.156Z,99.65
2023-03-11T12:04:36.815Z,100.00
2023-03-11T12:07:51.462Z,99.50
2023-03-11T12:10:45.145Z,96.22
2023-03-11T12:14:03.115Z,97.09
2023-03-11T12:16:48.554Z,97.83
2023-03-11T12:19:34.128Z,96.72
2023-03-11T12:22:39.555Z,94.42
2023-03-11T12:25:23.211Z,93.44
2023-03-11T12:28:27.226Z,94.52
2023-03-11T12:31:07.115Z,91.38
2023-03-11T12:34:03.171Z,92.29
2023-03-11T12:36:41.133Z,90.29
2023-03-11T12:39:33.889Z,91.30
2023-03-11T12:42:21.664Z,91.33
2023-03-11T12:44:53.802Z,91.25
2023-03-11T12:47:28.812Z,91.55
2023-03-11T12:50:35.380Z,92.41
2023-03-11T12:53:05.193Z,90.75
2023-03-11T12:55:38.917Z,90.08
2023-03-11T12:58:37.814Z,90.16
2023-03-11T13:01:32.088Z,88.73
2023-03-11T13:04:39.705Z,88.47
2023-03-11T13:07:22.476Z,87.84
2023-03-11T13:10:07.667Z,86.27
2023-03-11T13:12:43.923Z,86.05
2023-03-11T13:15:20.555Z,86.80
2023-03-11T13:18:05.314Z,85.20
2023-03-11T13:20:43.255Z,86.77
2023-03-11T13:23:13.280Z,87.65
2023-03-11T13:26:05.158Z,87.08
2023-03-11T13:29:03.934Z,86.98
2023-03-11T13:32:06.957Z,88.27
2023-03-11T13:35:07.051Z,88.02
2023-03-11T13:38:16.101Z,86.16
2023-03-11T13:40:47.073Z,86.27
2023-03-11T13:43:25.988Z,85.90
2023-03-11T13:46:13.459Z,87.05
2023-03-11T13:48:48.072Z,85.43
2023-03-11T13:51:36.306Z,86.67
2023-03-11T13:54:20.060Z,85.41
2023-03-11T13:56:58.594Z,86.39
2023-03-11T13:59:35.448Z,86.99
2023-03-11T14:02:19.818Z,86.63
2023-03-11T14:05:21.061Z,88.03
2023-03-11T14:07:48.187Z,87.65
2023-03-11T14:10:30.612Z,87.91
2023-03-11T14:13:17.724Z,87.87
2023-03-11T14:16:16.203Z,87.63
2023-03-11T14:19:15.307Z,87.11
2023-03-11T14:21:49.694Z,88.07
2023-03-11T14:24:29.974Z,87.04
2023-03-11T14:27:04.989Z,85.33
2023-03-11T14:29:40.353Z,84.82
2023-03-11T14:32:33.023Z,85.65
2023-03-11T14:35:01.372Z,84.92
2023-03-11T14:37:37.365Z,81.99
2023-03-11T14:40:26.770Z,79.83
2023-03-11T14:43:03.133Z,78.56
2023-03-11T14:45:37.434Z,78.75
2023-03-11T14:48:22.577Z,77.33
2023-03-11T14:50:53.826Z,76.44
2023-03-11T14:53:37.770Z,77.39
2023-03-11T14:56:18.960Z,78.28
2023-03-11T14:59:16.326Z,79.37
2023-03-11T15:01:48.272Z,79.32
2023-03-11T15:04:35.435Z,80.69
2023-03-11T15:07:06.245Z,80.28
2023-03-11T15:09:39.700Z,79.41
2023-03-11T15:12:32.846Z,79.43
2023-03-11T15:15:03.394Z,78.32
2023-03-11T15:17:39.833Z,77.46
2023-03-11T15:20:30.929Z,77.86
2023-03-11T15:23:05.293Z,77.20
2023-03-11T15:25:39.047Z,77.68
2023-03-11T15:28:38.436Z,79.06
2023-03-11T15:31:31.202Z,80.44
2023-03-11T15:34:18.934Z,79.47
2023-03-11T15:36:49.261Z,77.89
2023-03-11T15:39:31.310Z,77.29
2023-03-11T15:42:11.712Z,76.77
2023-03-11T15:44:52.561Z,76.04
2023-03-11T15:47:23.635Z,76.54
2023-03-11T15:49:53.598Z,75.53
2023-03-11T15:52:23.703Z,76.28
2023-03-11T15:54:56.102Z,76.29
2023-03-11T15:57:30.592Z,76.12
2023-03-11T16:00:02.098Z,75.75
2023-03-11T16:02:32.624Z,75.93
2023-03-11T16:05:02.503Z,76.23
2023-03-11T16:07:39.596Z,76.38
2023-03-11T16:10:11.821Z,75.61
2023-03-11T16:12:44.893Z,76.17
2023-03-11T16:15:38.008Z,76.34
2023-03-11T16:18:08.829Z,76.22
2023-03-11T16:20:46.532Z,76.67
2023-03-11T16:23:22.267Z,75.57
2023-03-11T16:25:58.207Z,75.44
2023-03-11T16:28:28.466Z,74.81
2023-03-11T16:30:58.270Z,75.31
2023-03-11T16:33:28.092Z,76.76
2023-03-11T16:35:57.893Z,77.45
2023-03-11T16:38:30.787Z,78.08
2023-03-11T16:41:02.746Z,79.09
2023-03-11T16:43:32.118Z,80.12
2023-03-11T16:46:00.017Z,80.32
2023-03-11T16:48:28.793Z,80.54
2023-03-11T16:50:57.057Z,81.65
2023-03-11T16:53:26.317Z,82.33
2023-03-11T16:55:54.187Z,82.69
2023-03-11T16:58:22.468Z,82.99
2023-03-11T17:00:50.543Z,83.86
2023-03-11T17:03:21.860Z,84.89
2023-03-11T17:05:50.713Z,86.53
2023-03-11T17:08:18.802Z,87.38
2023-03-11T17:10:47.305Z,88.20
2023-03-11T17:13:18.862Z,88.61
2023-03-11T17:16:02.582Z,89.00
2023-03-11T17:18:32.452Z,89.29
2023-03-11T17:21:10.333Z,89.95
2023-03-11T17:23:40.806Z,91.46
2023-03-11T17:26:14.902Z,91.67
2023-03-11T17:28:44.889Z,92.77
2023-03-11T17:31:17.276Z,93.12
2023-03-11T17:33:47.214Z,93.57
2023-03-11T17:36:18.580Z,93.85
2023-03-11T17:38:52.940Z,94.08
2023-03-11T17:41:23.397Z,94.84
2023-03-11T17:43:53.257Z,96.01
2023-03-11T17:46:24.007Z,97.48
2023-03-11T17:48:53.910Z,98.47
2023-03-11T17:51:26.325Z,98.67
2023-03-11T17:53:56.376Z,99.22
2023-03-11T17:56:26.157Z,99.75
2023-03-11T17:58:58.550Z,99.97
2023-03-11T18:01:29.242Z,100.00
2023-03-11T18:03:59.249Z,100.00
2023-03-11T18:06:29.098Z,100.00
2023-03-11T18:09:00.032Z,100.00
2023-03-11T18:11:30.626Z,100.00
2023-03-11T18:14:00.406Z,100.00
2023-03-11T18:16:31.858Z,100.00
2023-03-11T18:19:01.680Z,100.00
2023-03-11T18:21:32.228Z,100.00
2023-03-11T18:24:02.226Z,100.00
2023-03-11T18:26:31.288Z,100.00
2023-03-11T18:29:00.349Z,100.00
2023-03-11T18:31:30.509Z,100.00
2023-03-11T18:34:05.223Z,100.00
2023-03-11T18:36:37.613Z,100.00
2023-03-11T18:39:12.457Z,100.00
2023-03-11T18:41:42.882Z,100.00
2023-03-11T18:44:12.729Z,100.00
2023-03-11T18:46:42.574Z,100.00
2023-03-11T18:49:14.194Z,100.00
2023-03-11T18:51:43.929Z,100.00
2023-03-11T18:54:13.652Z,100.00
2023-03-11T18:56:43.523Z,100.00
2023-03-11T18:59:14.431Z,100.00
2023-03-11T19:01:44.176Z,100.00
2023-03-11T19:04:14.273Z,100.00
2023-03-11T19:06:44.322Z,100.00
2023-03-11T19:09:14.676Z,100.00
2023-03-11T19:11:45.683Z,100.00
2023-03-11T19:14:15.877Z,100.00
2023-03-11T19:16:45.685Z,100.00
2023-03-11T19:19:15.679Z,100.00
2023-03-11T19:21:45.657Z,100.00
2023-03-11T19:24:15.608Z,100.00
2023-03-11T19:26:45.924Z,100.00
2023-03-11T19:29:15.629Z,100.00
2023-03-11T19:31:45.819Z,100.00
2023-03-11T19:34:15.821Z,100.00
2023-03-11T19:36:46.712Z,100.00
2023-03-11T19:39:16.430Z,100.00
2023-03-11T19:41:46.144Z,100.00
2023-03-11T19:44:16.042Z,100.00
2023-03-11T19:46:45.942Z,100.00
2023-03-11T19:49:16.339Z,100.00
2023-03-11T19:51:50.433Z,100.00
2023-03-11T19:54:20.544Z,100.00
2023-03-11T19:56:50.308Z,100.00
2023-03-11T19:59:20.167Z,100.00
2023-03-11T20:01:50.024Z,100.00
2023-03-11T20:04:19.865Z,100.00
2023-03-11T20:06:50.101Z,100.00
2023-03-11T20:09:20.524Z,100.00
2023-03-11T20:11:50.502Z,100.00
2023-03-11T20:14:20.339Z,100.00
2023-03-11T20:16:50.442Z,100.00
2023-03-11T20:19:20.194Z,100.00
2023-03-11T20:21:50.267Z,100.00
2023-03-11T20:24:20.129Z,100.00
2023-03-11T20:26:51.295Z,100.00
2023-03-11T20:29:21.146Z,100.00
2023-03-11T20:31:51.362Z,100.00
2023-03-11T20:34:21.386Z,100.00
2023-03-11T20:36:51.294Z,100.00
2023-03-11T20:39:21.060Z,100.00
2023-03-11T20:41:50.926Z,100.00
2023-03-11T20:44:20.749Z,100.00
2023-03-11T20:46:50.843Z,100.00
2023-03-11T20:49:20.928Z,100.00
2023-03-11T20:51:50.757Z,100.00
2023-03-11T20:54:20.791Z,100.00
2023-03-11T20:56:51.044Z,100.00
2023-03-11T20:59:20.721Z,100.00
2023-03-11T21:01:50.754Z,100.00
2023-03-11T21:04:21.406Z,100.00
2023-03-11T21:06:57.405Z,100.00
2023-03-11T21:09:25.607Z,100.00
2023-03-11T21:11:53.637Z,100.00
2023-03-11T21:14:22.057Z,100.00
2023-03-11T21:16:50.329Z,100.00
2023-03-11T21:19:17.518Z,100.00
2023-03-11T21:21:45.804Z,100.00
2023-03-11T21:24:15.183Z,100.00
2023-03-11T21:26:42.464Z,100.00
2023-03-11T21:29:11.174Z,100.00
2023-03-11T21:31:39.519Z,100.00
2023-03-11T21:34:11.918Z,100.00
2023-03-11T21:36:39.650Z,100.00
2023-03-11T21:39:07.911Z,100.00
2023-03-11T21:41:36.151Z,100.00
2023-03-11T21:44:04.607Z,100.00
2023-03-11T21:46:33.525Z,100.00
2023-03-11T21:49:01.808Z,100.00
2023-03-11T21:51:31.287Z,100.00
2023-03-11T21:53:59.141Z,100.00
2023-03-11T21:56:26.708Z,100.00
2023-03-11T21:58:55.199Z,100.00
2023-03-11T22:01:23.736Z,100.00
2023-03-11T22:03:51.952Z,100.00
2023-03-11T22:06:20.613Z,100.00
2023-03-11T22:08:49.231Z,100.00
2023-03-11T22:11:19.510Z,100.00
2023-03-11T22:13:52.083Z,100.00
2023-03-11T22:16:24.649Z,100.00
2023-03-11T22:18:54.259Z,100.00
2023-03-11T22:21:21.900Z,100.00
2023-03-11T22:23:50.177Z,100.00
2023-03-11T22:26:18.660Z,100.00
2023-03-11T22:28:46.996Z,100.00
2023-03-11T22:31:18.489Z,100.00
2023-03-11T22:33:46.996Z,100.00
2023-03-11T22:36:16.957Z,100.00
2023-03-11T22:38:46.723Z,100.00
2023-03-11T22:41:19.297Z,100.00
2023-03-11T22:43:49.058Z,100.00
2023-03-11T22:46:19.017Z,100.00
2023-03-11T22:48:48.740Z,100.00
2023-03-11T22:51:18.514Z,100.00
2023-03-11T22:53:49.038Z,100.00
2023-03-11T22:56:19.458Z,100.00
2023-03-11T22:58:49.155Z,100.00
2023-03-11T23:01:19.177Z,100.00
2023-03-11T23:03:49.213Z,100.00
2023-03-11T23:06:21.532Z,100.00
2023-03-11T23:08:51.377Z,100.00
2023-03-11T23:11:23.367Z,100.00
2023-03-11T23:13:55.061Z,100.00
2023-03-11T23:16:26.267Z,100.00
2023-03-11T23:18:56.750Z,100.00
2023-03-11T23:21:29.900Z,100.00
2023-03-11T23:23:58.387Z,100.00
2023-03-11T23:26:25.565Z,100.00
2023-03-11T23:28:54.572Z,100.00
2023-03-11T23:31:25.891Z,100.00
2023-03-11T23:33:54.185Z,100.00
2023-03-11T23:36:24.516Z,100.00
2023-03-11T23:38:53.743Z,100.00
2023-03-11T23:41:23.697Z,100.00
2023-03-11T23:43:53.427Z,100.00
2023-03-11T23:46:23.207Z,100.00
2023-03-11T23:48:53.004Z,100.00
2023-03-11T23:51:23.140Z,100.00
2023-03-11T23:53:53.063Z,100.00
2023-03-11T23:56:23.105Z,100.00
2023-03-11T23:58:52.946Z,100.00
